createdAt,value
2023-04-16T00:02:14.773Z,100104.06
2023-04-16T00:04:42.116Z,100105.15
2023-04-16T00:07:09.367Z,100104.15
2023-04-16T00:09:36.500Z,100110.70
2023-04-16T00:12:04.272Z,100106.67
2023-04-16T00:14:31.369Z,100108.71
2023-04-16T00:16:58.553Z,100108.28
2023-04-16T00:19:25.722Z,100111.65
2023-04-16T00:21:52.910Z,100117.36
2023-04-16T00:24:20.054Z,100113.78
2023-04-16T00:26:47.225Z,100114.81
2023-04-16T00:29:15.072Z,100118.33
2023-04-16T00:31:42.196Z,100116.27
2023-04-16T00:34:09.319Z,100119.30
2023-04-16T00:36:36.594Z,100124.27
2023-04-16T00:39:03.751Z,100125.64
2023-04-16T00:41:30.998Z,100124.36
2023-04-16T00:43:58.105Z,100125.53
2023-04-16T00:46:26.099Z,100126.48
2023-04-16T00:48:55.522Z,100125.98
2023-04-16T00:51:22.914Z,100125.23
2023-04-16T00:53:50.827Z,100124.66
2023-04-16T00:56:18.340Z,100125.98
2023-04-16T00:58:45.633Z,100126.05
2023-04-16T01:01:14.403Z,100124.66
2023-04-16T01:03:47.508Z,100125.35
2023-04-16T01:06:16.849Z,100124.44
2023-04-16T01:08:44.539Z,100123.06
2023-04-16T01:11:12.266Z,100126.45
2023-04-16T01:13:39.956Z,100122.59
2023-04-16T01:16:11.341Z,100124.66
2023-04-16T01:18:39.407Z,100120.90
2023-04-16T01:21:06.939Z,100117.05
2023-04-16T01:23:34.218Z,100117.95
2023-04-16T01:26:02.614Z,100116.48
2023-04-16T01:28:29.753Z,100116.98
2023-04-16T01:30:56.844Z,100113.27
2023-04-16T01:33:45.529Z,100115.63
2023-04-16T01:36:12.765Z,100113.18
2023-04-16T01:38:40.003Z,100118.52
2023-04-16T01:41:07.139Z,100118.77
2023-04-16T01:43:35.612Z,100119.48
2023-04-16T01:46:15.581Z,100120.31
2023-04-16T01:48:43.201Z,100118.52
2023-04-16T01:51:10.334Z,100118.67
2023-04-16T01:53:37.571Z,100124.30
2023-04-16T01:56:05.151Z,100118.64
2023-04-16T01:58:33.981Z,100121.19
2023-04-16T02:01:01.291Z,100120.70
2023-04-16T02:03:28.925Z,100121.09
2023-04-16T02:05:56.086Z,100118.98
2023-04-16T02:08:23.464Z,100122.84
2023-04-16T02:10:50.884Z,100124.10
2023-04-16T02:13:18.110Z,100120.83
2023-04-16T02:15:48.167Z,100121.05
2023-04-16T02:18:18.708Z,100128.81
2023-04-16T02:20:47.460Z,100124.48
2023-04-16T02:23:15.182Z,100126.39
2023-04-16T02:25:43.670Z,100129.14
2023-04-16T02:28:13.463Z,100130.67
2023-04-16T02:30:41.592Z,100134.87
2023-04-16T02:33:10.668Z,100138.32
2023-04-16T02:35:40.507Z,100140.30
2023-04-16T02:38:08.558Z,100140.52
2023-04-16T02:40:36.102Z,100141.09
2023-04-16T02:43:03.409Z,100140.48
2023-04-16T02:45:31.764Z,100142.43
2023-04-16T02:48:00.048Z,100149.73
2023-04-16T02:50:27.468Z,100150.10
2023-04-16T02:52:54.638Z,100148.19
2023-04-16T02:55:21.864Z,100153.11
2023-04-16T02:57:49.091Z,100151.83
2023-04-16T03:00:16.477Z,100153.23
2023-04-16T03:02:43.845Z,100155.01
2023-04-16T03:05:12.431Z,100157.21
2023-04-16T03:07:40.850Z,100160.52
2023-04-16T03:10:09.100Z,100162.80
2023-04-16T03:12:36.390Z,100162.98
2023-04-16T03:15:07.482Z,100164.80
2023-04-16T03:17:34.665Z,100166.56
2023-04-16T03:20:02.003Z,100165.86
2023-04-16T03:22:29.122Z,100169.32
2023-04-16T03:24:56.398Z,100169.69
2023-04-16T03:27:24.021Z,100171.91
2023-04-16T03:29:51.657Z,100171.95
2023-04-16T03:32:19.064Z,100179.19
2023-04-16T03:34:46.605Z,100182.23
2023-04-16T03:37:13.813Z,100181.52
2023-04-16T03:39:41.077Z,100183.04
2023-04-16T03:42:09.509Z,100189.24
2023-04-16T03:44:36.674Z,100191.71
2023-04-16T03:47:03.791Z,100192.03
2023-04-16T03:49:30.980Z,100193.27
2023-04-16T03:51:58.415Z,100198.02
2023-04-16T03:54:25.931Z,100198.02
2023-04-16T03:56:59.709Z,100196.73
2023-04-16T03:59:26.872Z,100199.30
2023-04-16T04:01:54.192Z,100198.26
2023-04-16T04:04:21.510Z,100203.11
2023-04-16T04:06:48.808Z,100207.55
2023-04-16T04:09:16.393Z,100211.73
2023-04-16T04:11:43.492Z,100213.36
2023-04-16T04:14:10.797Z,100215.45
2023-04-16T04:16:38.106Z,100217.52
2023-04-16T04:19:05.222Z,100222.70
2023-04-16T04:21:32.779Z,100224.61
2023-04-16T04:24:00.017Z,100225.83
2023-04-16T04:26:29.645Z,100223.02
2023-04-16T04:28:56.950Z,100223.10
2023-04-16T04:31:24.186Z,100222.13
2023-04-16T04:33:51.322Z,100225.58
2023-04-16T04:36:18.755Z,100226.20
2023-04-16T04:38:45.889Z,100230.46
2023-04-16T04:41:13.158Z,100230.79
2023-04-16T04:43:40.276Z,100233.66
2023-04-16T04:46:07.832Z,100231.33
2023-04-16T04:48:35.485Z,100230.34
2023-04-16T04:51:05.287Z,100230.63
2023-04-16T04:53:32.917Z,100232.08
2023-04-16T04:56:09.253Z,100231.23
2023-04-16T04:58:40.807Z,100231.14
2023-04-16T05:01:08.008Z,100231.43
2023-04-16T05:03:35.229Z,100228.45
2023-04-16T05:06:02.421Z,100233.57
2023-04-16T05:08:29.572Z,100231.14
2023-04-16T05:10:56.689Z,100232.23
2023-04-16T05:13:23.789Z,100233.58
2023-04-16T05:15:50.976Z,100231.77
2023-04-16T05:18:18.081Z,100235.60
2023-04-16T05:20:45.357Z,100239.61
2023-04-16T05:23:12.489Z,100242.19
2023-04-16T05:25:39.590Z,100242.78
2023-04-16T05:28:06.765Z,100247.27
2023-04-16T05:30:33.841Z,100249.15
2023-04-16T05:33:01.212Z,100253.66
2023-04-16T05:35:28.383Z,100257.50
2023-04-16T05:37:55.571Z,100257.77
2023-04-16T05:40:22.700Z,100262.89
2023-04-16T05:42:49.842Z,100263.87
2023-04-16T05:45:16.898Z,100268.40
2023-04-16T05:47:44.396Z,100272.73
2023-04-16T05:50:11.626Z,100272.86
2023-04-16T05:52:39.184Z,100272.05
2023-04-16T05:55:07.259Z,100275.39
2023-04-16T05:57:34.372Z,100270.42
2023-04-16T06:00:01.493Z,100277.38
2023-04-16T06:02:30.752Z,100276.39
2023-04-16T06:04:57.971Z,100279.89
2023-04-16T06:07:25.121Z,100278.95
2023-04-16T06:09:52.250Z,100283.10
2023-04-16T06:12:19.404Z,100284.67
2023-04-16T06:14:46.436Z,100288.51
2023-04-16T06:17:13.536Z,100294.02
2023-04-16T06:19:40.893Z,100296.89
2023-04-16T06:22:07.975Z,100301.88
2023-04-16T06:24:35.046Z,100301.91
2023-04-16T06:27:02.955Z,100307.53
2023-04-16T06:29:40.572Z,100309.30
2023-04-16T06:32:08.842Z,100307.40
2023-04-16T06:34:36.138Z,100307.43
2023-04-16T06:37:03.452Z,100309.33
2023-04-16T06:39:31.089Z,100307.16
2023-04-16T06:41:58.246Z,100302.64
2023-04-16T06:44:25.369Z,100301.98
2023-04-16T06:46:52.788Z,100301.41
2023-04-16T06:49:19.926Z,100304.64
2023-04-16T06:51:47.076Z,100309.66
2023-04-16T06:54:14.312Z,100311.10
2023-04-16T06:56:41.448Z,100310.00
2023-04-16T06:59:08.732Z,100312.17
2023-04-16T07:01:36.507Z,100312.20
2023-04-16T07:04:04.420Z,100312.81
2023-04-16T07:06:32.187Z,100313.16
2023-04-16T07:08:59.348Z,100315.46
2023-04-16T07:11:27.298Z,100316.73
2023-04-16T07:13:54.472Z,100314.68
2023-04-16T07:16:21.690Z,100319.19
2023-04-16T07:18:48.909Z,100322.30
2023-04-16T07:21:16.058Z,100325.67
2023-04-16T07:23:43.499Z,100329.35
2023-04-16T07:26:11.767Z,100331.55
2023-04-16T07:28:38.860Z,100332.09
2023-04-16T07:31:06.178Z,100331.73
2023-04-16T07:33:33.879Z,100332.79
2023-04-16T07:36:01.050Z,100332.05
2023-04-16T07:38:28.134Z,100337.42
2023-04-16T07:40:56.950Z,100335.80
2023-04-16T07:43:24.136Z,100337.67
2023-04-16T07:45:51.714Z,100338.69
2023-04-16T07:48:18.812Z,100340.50
2023-04-16T07:50:46.150Z,100341.89
2023-04-16T07:53:13.300Z,100345.17
2023-04-16T07:55:40.439Z,100344.01
2023-04-16T07:58:09.577Z,100350.30
2023-04-16T08:00:36.712Z,100350.23
2023-04-16T08:03:04.371Z,100348.61
2023-04-16T08:05:31.692Z,100352.83
2023-04-16T08:07:58.788Z,100356.55
2023-04-16T08:10:26.086Z,100359.59
2023-04-16T08:12:53.576Z,100360.79
2023-04-16T08:15:20.620Z,100356.61
2023-04-16T08:17:47.689Z,100360.09
2023-04-16T08:20:17.620Z,100360.03
2023-04-16T08:22:46.864Z,100362.95
2023-04-16T08:25:14.637Z,100361.27
2023-04-16T08:27:41.787Z,100363.46
2023-04-16T08:30:08.900Z,100367.77
2023-04-16T08:32:36.047Z,100366.69
2023-04-16T08:35:03.352Z,100369.35
2023-04-16T08:37:30.513Z,100374.86
2023-04-16T08:39:57.604Z,100378.45
2023-04-16T08:42:31.578Z,100378.83
2023-04-16T08:45:11.620Z,100378.86
2023-04-16T08:47:39.024Z,100378.89
2023-04-16T08:50:06.647Z,100380.52
2023-04-16T08:52:38.206Z,100383.29
2023-04-16T08:55:12.718Z,100383.30
2023-04-16T08:58:01.435Z,100382.09
2023-04-16T09:00:31.706Z,100386.27
2023-04-16T09:02:59.390Z,100389.30
2023-04-16T09:05:27.830Z,100389.30
2023-04-16T09:07:55.010Z,100396.61
2023-04-16T09:10:22.312Z,100398.50
2023-04-16T09:12:49.889Z,100397.42
2023-04-16T09:15:16.967Z,100400.64
2023-04-16T09:17:44.302Z,100403.20
2023-04-16T09:20:13.123Z,100406.36
2023-04-16T09:22:40.566Z,100410.66
2023-04-16T09:25:08.301Z,100414.76
2023-04-16T09:27:36.674Z,100417.80
2023-04-16T09:30:22.990Z,100417.42
2023-04-16T09:32:51.758Z,100420.37
2023-04-16T09:35:21.966Z,100420.81
2023-04-16T09:37:57.093Z,100423.58
2023-04-16T09:40:26.359Z,100421.95
2023-04-16T09:42:57.740Z,100424.92
2023-04-16T09:45:24.962Z,100427.20
2023-04-16T09:47:52.243Z,100427.92
2023-04-16T09:50:20.703Z,100428.46
2023-04-16T09:52:51.505Z,100428.98
2023-04-16T09:55:27.158Z,100431.20
2023-04-16T09:58:01.074Z,100432.39
2023-04-16T10:00:30.802Z,100437.61
2023-04-16T10:03:05.812Z,100440.73
2023-04-16T10:05:33.077Z,100448.86
2023-04-16T10:08:02.197Z,100446.28
2023-04-16T10:10:29.854Z,100448.46
2023-04-16T10:12:58.021Z,100450.10
2023-04-16T10:15:25.880Z,100453.23
2023-04-16T10:17:54.246Z,100455.88
2023-04-16T10:20:24.047Z,100457.28
2023-04-16T10:22:51.456Z,100454.22
2023-04-16T10:25:18.943Z,100456.86
2023-04-16T10:27:46.703Z,100455.30
2023-04-16T10:30:16.763Z,100457.79
2023-04-16T10:32:46.586Z,100453.76
2023-04-16T10:35:20.188Z,100459.98
2023-04-16T10:37:47.603Z,100460.93
2023-04-16T10:40:27.895Z,100461.34
2023-04-16T10:42:56.644Z,100459.41
2023-04-16T10:45:29.909Z,100462.35
2023-04-16T10:47:59.579Z,100466.62
2023-04-16T10:50:35.166Z,100467.79
2023-04-16T10:53:17.708Z,100468.75
2023-04-16T10:55:57.544Z,100471.52
2023-04-16T10:58:31.629Z,100468.66
2023-04-16T11:01:07.271Z,100469.48
2023-04-16T11:03:34.469Z,100473.29
2023-04-16T11:06:26.271Z,100472.83
2023-04-16T11:08:55.296Z,100474.17
2023-04-16T11:11:23.104Z,100477.12
2023-04-16T11:13:54.941Z,100483.19
2023-04-16T11:16:22.123Z,100487.08
2023-04-16T11:18:51.605Z,100485.08
2023-04-16T11:21:20.203Z,100488.56
2023-04-16T11:23:52.203Z,100493.25
2023-04-16T11:26:27.378Z,100496.66
2023-04-16T11:29:00.278Z,100499.62
2023-04-16T11:31:27.527Z,100500.41
2023-04-16T11:33:56.198Z,100501.66
2023-04-16T11:36:24.865Z,100503.43
2023-04-16T11:39:02.450Z,100506.96
2023-04-16T11:41:29.474Z,100504.39
2023-04-16T11:43:56.564Z,100509.77
2023-04-16T11:46:27.869Z,100509.84
2023-04-16T11:48:56.253Z,100511.73
2023-04-16T11:51:24.135Z,100512.33
2023-04-16T11:53:56.381Z,100511.44
2023-04-16T11:56:28.588Z,100510.63
2023-04-16T11:59:13.425Z,100514.45
2023-04-16T12:01:42.430Z,100513.14
2023-04-16T12:04:09.931Z,100514.30
2023-04-16T12:06:37.442Z,100511.67
2023-04-16T12:09:26.355Z,100513.35
2023-04-16T12:11:53.770Z,100514.44
2023-04-16T12:14:21.648Z,100515.70
2023-04-16T12:16:48.874Z,100513.59
2023-04-16T12:19:16.104Z,100514.23
2023-04-16T12:21:46.083Z,100517.20
2023-04-16T12:24:15.516Z,100516.44
2023-04-16T12:26:48.796Z,100516.83
2023-04-16T12:29:17.408Z,100520.87
2023-04-16T12:31:44.607Z,100521.52
2023-04-16T12:34:11.844Z,100518.97
2023-04-16T12:36:39.029Z,100523.50
2023-04-16T12:39:06.221Z,100520.88
2023-04-16T12:41:36.934Z,100519.66
2023-04-16T12:44:12.042Z,100521.49
2023-04-16T12:46:40.491Z,100518.77
2023-04-16T12:49:09.440Z,100514.61
2023-04-16T12:51:37.861Z,100514.44
2023-04-16T12:54:10.375Z,100513.63
2023-04-16T12:56:37.414Z,100518.34
2023-04-16T12:59:04.999Z,100517.04
2023-04-16T13:01:32.192Z,100522.46
2023-04-16T13:03:59.495Z,100521.56
2023-04-16T13:06:26.800Z,100522.73
2023-04-16T13:08:53.970Z,100521.65
2023-04-16T13:11:21.202Z,100525.38
2023-04-16T13:13:48.316Z,100522.58
2023-04-16T13:16:15.507Z,100519.05
2023-04-16T13:18:42.553Z,100522.56
2023-04-16T13:21:09.992Z,100521.11
2023-04-16T13:23:37.074Z,100518.66
2023-04-16T13:26:04.334Z,100520.77
2023-04-16T13:28:31.489Z,100522.27
2023-04-16T13:30:58.974Z,100524.89
2023-04-16T13:33:26.614Z,100522.48
2023-04-16T13:35:53.917Z,100523.66
2023-04-16T13:38:21.279Z,100525.18
2023-04-16T13:40:48.446Z,100527.23
2023-04-16T13:43:17.601Z,100529.73
2023-04-16T13:45:44.970Z,100532.90
2023-04-16T13:48:12.221Z,100534.07
2023-04-16T13:50:39.348Z,100536.30
2023-04-16T13:53:06.486Z,100537.40
2023-04-16T13:55:33.589Z,100538.27
2023-04-16T13:58:00.805Z,100539.48
2023-04-16T14:00:28.057Z,100540.39
2023-04-16T14:02:55.381Z,100543.84
2023-04-16T14:05:25.142Z,100544.90
2023-04-16T14:07:53.732Z,100546.52
2023-04-16T14:10:21.019Z,100547.55
2023-04-16T14:12:48.251Z,100549.23
2023-04-16T14:15:15.474Z,100546.91
2023-04-16T14:17:44.250Z,100547.89
2023-04-16T14:20:13.497Z,100543.34
2023-04-16T14:22:42.521Z,100544.52
2023-04-16T14:25:09.742Z,100544.63
2023-04-16T14:27:36.865Z,100544.55
2023-04-16T14:30:05.106Z,100543.80
2023-04-16T14:32:32.366Z,100541.77
2023-04-16T14:34:59.501Z,100541.80
2023-04-16T14:37:26.702Z,100541.77
2023-04-16T14:39:54.165Z,100541.52
2023-04-16T14:42:22.559Z,100542.15
2023-04-16T14:44:49.799Z,100541.09
2023-04-16T14:47:16.979Z,100539.86
2023-04-16T14:49:44.057Z,100537.39
2023-04-16T14:52:11.674Z,100541.01
2023-04-16T14:54:38.752Z,100543.88
2023-04-16T14:57:06.074Z,100543.72
2023-04-16T14:59:33.187Z,100547.91
2023-04-16T15:02:00.327Z,100546.19
2023-04-16T15:04:27.878Z,100550.21
2023-04-16T15:06:58.932Z,100553.56
2023-04-16T15:09:27.566Z,100560.11
2023-04-16T15:11:54.821Z,100560.81
2023-04-16T15:14:21.970Z,100560.38
2023-04-16T15:16:49.575Z,100558.46
2023-04-16T15:19:16.806Z,100561.95
2023-04-16T15:21:44.081Z,100563.33
2023-04-16T15:24:11.600Z,100563.14
2023-04-16T15:26:39.124Z,100567.53
2023-04-16T15:29:06.396Z,100569.23
2023-04-16T15:31:33.726Z,100571.83
2023-04-16T15:34:01.628Z,100572.77
2023-04-16T15:36:28.825Z,100573.54
2023-04-16T15:38:55.994Z,100574.57
2023-04-16T15:41:23.293Z,100576.66
2023-04-16T15:43:50.558Z,100578.64
2023-04-16T15:46:17.720Z,100578.41
2023-04-16T15:48:44.938Z,100583.61
2023-04-16T15:51:12.293Z,100580.81
2023-04-16T15:53:39.584Z,100581.41
2023-04-16T15:56:06.718Z,100585.17
2023-04-16T15:58:33.893Z,100584.39
2023-04-16T16:01:00.975Z,100582.33
2023-04-16T16:03:28.311Z,100580.02
2023-04-16T16:05:57.013Z,100582.30
2023-04-16T16:08:26.124Z,100587.52
2023-04-16T16:10:53.254Z,100589.69
2023-04-16T16:13:20.245Z,100591.78
2023-04-16T16:15:47.390Z,100594.06
2023-04-16T16:18:14.441Z,100593.27
2023-04-16T16:20:41.665Z,100597.26
2023-04-16T16:23:08.765Z,100595.64
2023-04-16T16:25:36.024Z,100596.16
2023-04-16T16:28:06.287Z,100597.95
2023-04-16T16:30:33.907Z,100595.70
2023-04-16T16:33:01.020Z,100598.19
2023-04-16T16:35:28.321Z,100601.43
2023-04-16T16:37:57.319Z,100600.39
2023-04-16T16:40:24.600Z,100602.70
2023-04-16T16:42:51.879Z,100602.52
2023-04-16T16:45:19.245Z,100604.70
2023-04-16T16:47:46.961Z,100604.25
2023-04-16T16:50:14.104Z,100605.70
2023-04-16T16:52:41.272Z,100602.02
2023-04-16T16:55:10.992Z,100602.27
2023-04-16T16:57:38.964Z,100600.85
2023-04-16T17:00:16.327Z,100606.77
2023-04-16T17:02:43.913Z,100610.48
2023-04-16T17:05:12.694Z,100610.80
2023-04-16T17:07:39.933Z,100612.09
2023-04-16T17:10:07.709Z,100611.29
2023-04-16T17:12:35.658Z,100616.58
2023-04-16T17:15:03.108Z,100615.98
2023-04-16T17:17:31.731Z,100617.99
2023-04-16T17:20:00.960Z,100618.69
2023-04-16T17:22:28.129Z,100619.24
2023-04-16T17:24:55.178Z,100624.52
2023-04-16T17:27:22.280Z,100623.80
2023-04-16T17:29:49.246Z,100623.00
2023-04-16T17:32:16.526Z,100623.91
2023-04-16T17:34:43.666Z,100623.88
2023-04-16T17:37:10.737Z,100627.19
2023-04-16T17:39:37.773Z,100629.83
2023-04-16T17:42:04.842Z,100632.13
2023-04-16T17:44:31.925Z,100635.55
2023-04-16T17:46:59.120Z,100634.91
2023-04-16T17:49:26.273Z,100640.92
2023-04-16T17:51:54.090Z,100641.81
2023-04-16T17:54:21.131Z,100643.38
2023-04-16T17:56:48.321Z,100645.77
2023-04-16T17:59:15.480Z,100647.77
2023-04-16T18:01:42.708Z,100650.48
2023-04-16T18:04:10.584Z,100653.11
2023-04-16T18:06:38.267Z,100649.44
2023-04-16T18:09:05.895Z,100652.00
2023-04-16T18:11:33.190Z,100653.90
2023-04-16T18:14:00.553Z,100650.23
2023-04-16T18:16:27.777Z,100653.68
2023-04-16T18:18:55.044Z,100654.18
2023-04-16T18:21:22.236Z,100653.59
2023-04-16T18:23:49.300Z,100654.86
2023-04-16T18:26:20.434Z,100660.48
2023-04-16T18:28:48.183Z,100668.90
2023-04-16T18:31:15.455Z,100671.97
2023-04-16T18:33:54.010Z,100673.11
2023-04-16T18:36:23.233Z,100674.39
2023-04-16T18:39:00.822Z,100669.92
2023-04-16T18:41:29.886Z,100674.59
2023-04-16T18:43:57.165Z,100680.23
2023-04-16T18:46:25.295Z,100686.40
2023-04-16T18:48:52.676Z,100685.48
2023-04-16T18:51:19.817Z,100688.33
2023-04-16T18:53:47.056Z,100688.35
2023-04-16T18:56:14.185Z,100688.91
2023-04-16T18:58:41.407Z,100687.23
2023-04-16T19:01:11.378Z,100687.86
2023-04-16T19:03:39.383Z,100689.77
2023-04-16T19:06:06.673Z,100687.86
2023-04-16T19:08:34.018Z,100691.67
2023-04-16T19:11:01.187Z,100688.81
2023-04-16T19:13:30.354Z,100692.48
2023-04-16T19:15:59.640Z,100689.45
2023-04-16T19:18:27.133Z,100687.40
2023-04-16T19:21:01.259Z,100685.93
2023-04-16T19:23:29.176Z,100686.05
2023-04-16T19:25:57.088Z,100688.61
2023-04-16T19:28:24.899Z,100689.11
2023-04-16T19:30:52.961Z,100690.98
2023-04-16T19:33:20.057Z,100695.08
2023-04-16T19:35:47.419Z,100695.41
2023-04-16T19:38:14.709Z,100696.36
2023-04-16T19:40:46.809Z,100696.30
2023-04-16T19:43:14.078Z,100693.52
2023-04-16T19:45:53.477Z,100693.83
2023-04-16T19:48:21.558Z,100697.73
2023-04-16T19:50:48.856Z,100694.97
2023-04-16T19:53:17.344Z,100700.19
2023-04-16T19:55:44.561Z,100697.09
2023-04-16T19:58:11.847Z,100698.65
2023-04-16T20:00:41.173Z,100697.66
2023-04-16T20:03:08.472Z,100695.84
2023-04-16T20:05:35.750Z,100700.55
2023-04-16T20:08:02.814Z,100702.84
2023-04-16T20:10:31.613Z,100706.17
2023-04-16T20:12:59.262Z,100706.40
2023-04-16T20:15:26.462Z,100711.81
2023-04-16T20:17:53.722Z,100721.10
2023-04-16T20:20:22.763Z,100722.67
2023-04-16T20:22:50.059Z,100724.83
2023-04-16T20:25:19.222Z,100723.27
2023-04-16T20:27:46.548Z,100722.34
2023-04-16T20:30:15.138Z,100723.80
2023-04-16T20:32:42.526Z,100724.83
2023-04-16T20:35:11.646Z,100723.20
2023-04-16T20:37:39.900Z,100726.61
2023-04-16T20:40:09.046Z,100725.20
2023-04-16T20:42:36.315Z,100727.02
2023-04-16T20:45:03.548Z,100726.64
2023-04-16T20:47:30.609Z,100726.61
2023-04-16T20:49:58.320Z,100732.05
2023-04-16T20:52:25.464Z,100736.08
2023-04-16T20:54:52.620Z,100732.20
2023-04-16T20:57:19.754Z,100731.84
2023-04-16T20:59:46.865Z,100730.11
2023-04-16T21:02:14.282Z,100730.52
2023-04-16T21:04:41.869Z,100734.06
2023-04-16T21:07:09.074Z,100737.02
2023-04-16T21:09:36.355Z,100739.07
2023-04-16T21:12:03.639Z,100740.86
2023-04-16T21:14:30.779Z,100737.83
2023-04-16T21:16:57.935Z,100739.85
2023-04-16T21:19:25.102Z,100740.87
2023-04-16T21:21:52.307Z,100739.60
2023-04-16T21:24:19.342Z,100741.35
2023-04-16T21:26:46.484Z,100741.55
2023-04-16T21:29:13.771Z,100742.00
2023-04-16T21:31:41.200Z,100741.66
2023-04-16T21:34:08.455Z,100738.02
2023-04-16T21:36:35.638Z,100740.61
2023-04-16T21:39:02.777Z,100739.19
2023-04-16T21:41:29.887Z,100740.16
2023-04-16T21:43:57.045Z,100739.84
2023-04-16T21:46:25.506Z,100737.48
2023-04-16T21:48:52.672Z,100736.58
2023-04-16T21:51:20.243Z,100735.52
2023-04-16T21:53:47.405Z,100735.08
2023-04-16T21:56:14.937Z,100735.28
2023-04-16T21:58:42.156Z,100734.25
2023-04-16T22:01:10.957Z,100736.77
2023-04-16T22:03:40.628Z,100735.35
2023-04-16T22:06:08.348Z,100735.92
2023-04-16T22:08:35.475Z,100733.77
2023-04-16T22:11:03.449Z,100734.72
2023-04-16T22:13:36.503Z,100735.70
2023-04-16T22:16:04.017Z,100739.29
2023-04-16T22:18:34.089Z,100738.75
2023-04-16T22:21:01.463Z,100737.94
2023-04-16T22:23:28.673Z,100738.91
2023-04-16T22:25:56.266Z,100738.38
2023-04-16T22:28:23.889Z,100739.84
2023-04-16T22:30:51.395Z,100743.06
2023-04-16T22:33:18.687Z,100743.17
2023-04-16T22:35:46.200Z,100743.39
2023-04-16T22:38:13.466Z,100743.79
2023-04-16T22:40:40.592Z,100740.22
2023-04-16T22:43:07.897Z,100745.18
2023-04-16T22:45:35.795Z,100744.75
2023-04-16T22:48:02.968Z,100747.51
2023-04-16T22:50:31.530Z,100745.70
2023-04-16T22:52:58.880Z,100745.77
2023-04-16T22:55:25.973Z,100748.61
2023-04-16T22:57:53.094Z,100745.55
2023-04-16T23:00:21.235Z,100749.04
2023-04-16T23:02:48.385Z,100746.16
2023-04-16T23:05:16.034Z,100747.34
2023-04-16T23:07:43.264Z,100749.85
2023-04-16T23:10:11.021Z,100750.79
2023-04-16T23:12:38.229Z,100753.92
2023-04-16T23:15:06.728Z,100751.71
2023-04-16T23:17:35.335Z,100751.32
2023-04-16T23:20:05.374Z,100753.52
2023-04-16T23:22:32.582Z,100752.71
2023-04-16T23:24:59.704Z,100749.04
2023-04-16T23:27:26.811Z,100750.08
2023-04-16T23:29:53.867Z,100751.96
2023-04-16T23:32:21.034Z,100750.70
2023-04-16T23:34:48.291Z,100747.94
2023-04-16T23:37:15.627Z,100747.52
2023-04-16T23:39:42.773Z,100747.39
2023-04-16T23:42:09.985Z,100751.64
2023-04-16T23:44:37.162Z,100749.50
2023-04-16T23:47:04.595Z,100753.58
2023-04-16T23:49:31.797Z,100751.02
2023-04-16T23:51:58.964Z,100750.48
2023-04-16T23:54:26.271Z,100752.21
2023-04-16T23:56:53.454Z,100752.64
2023-04-16T23:59:20.599Z,100750.20
